Islip/Long Island

Airport
ICAO code: 
KISP
Summary
ICAO Region: 
NAM
Territory: 
Location: 
Ronkonkoma, Town of Islip, Suffolk County, New York,
Coordinates: 
Aerial View: 
40° 47' 42.721" N, 73° 6' 0.709" W
Metar
Observation
KISP 020856Z AUTO 17009KT 10SM BKN070 OVC090 09/06 A2996 RMK AO2 SLP147 60003 T00890061 56038
Station
Islip, Long Island Mac Arthur Airport
Date/Time
2021-12-02 08:56:00
Wind direction
170°
Wind speed
09 kts
Lowest cloud amount
broken clouds
Temperature
8.9°C
Dew point
6.1°C
Humidity
82%
Weather condition
n/a

Description

Long Island MacArthur Airport, formerly known as Islip Airport is a public airport located on Long Island, in Ronkonkoma, Town of Islip, Suffolk County, New York, United States. It is 11 km northeast of the central business district of Islip hamlet.

Climatology

Humid “subtropical” climate (Köppen climate classification Cfa) - characterized by hot, humid summers and cool winters. Significant amounts of precipitation occur in all seasons in most areas. Winter rainfall (and sometimes snowfall) is associated with large storms that the westerlies steer from west to east. Most summer rainfall occurs during thunderstorms.

Runways

Designator Length Width Surface Rops
15L/33R 968 23 ASP Yes/Yes
10/28 1534 46 ASP Yes/Yes
15R/33L 1581 46 ASP Yes/Yes
6/24 2135 46 ASP Yes/Yes
Airport map: 
Aerial View: 

SKYbrary Partners:

Safety knowledge contributed by: